Bw Myna — 9V3250 — position and weather

sailwx.info

Track history (hours):
 
Tides and Currents Weather Stations Pressure Air Temp Water Temp Dewpoint Dewpoint Depression Visibility Wind Speed Wind Dir Waves Ship Positions

Bw Myna

Last reported at 2018-Aug-03 20:07 UTC. Time now 2018-Aug-15 02:59 UTC.
Position N 38°51' W 030°49'.
Warning: this ship's position is 11 days out of date.

Length 183 m; draft 11.3 m.

Type: Tanker. MMSI: 564225000.

Date/timePositionNaut miles runAvg speedWind from/ knotsBaromVisibWave heightAir tempDewpointWater temp
2018-Aug-03 20:07N 38°51' W 030°49'813.0
2018-Aug-03 19:28N 38°54' W 030°39'913.0
2018-Aug-03 18:45N 38°57' W 030°28'313.1
2018-Aug-03 18:30N 38°59' W 030°24'713.3
2018-Aug-03 18:00N 39°01' W 030°16'612.9
2018-Aug-03 17:30N 39°04' W 030°09'612.9
2018-Aug-03 17:00N 39°07' W 030°01'713.0
2018-Aug-03 16:30N 39°09' W 029°54'612.8
2018-Aug-03 16:00N 39°12' W 029°46'613.0
2018-Aug-03 15:30N 39°14' W 029°38'713.1
2018-Aug-03 15:00N 39°17' W 029°30'713.5
2018-Aug-03 14:30N 39°19' W 029°22'713.5
2018-Aug-03 14:00N 39°22' W 029°14'713.5
2018-Aug-03 13:30N 39°24' W 029°06'713.2
2018-Aug-03 13:00N 39°27' W 028°58'713.5
2018-Aug-03 12:30N 39°29' W 028°50'713.4
2018-Aug-03 12:00N 39°32' W 028°42'713.4
2018-Aug-03 11:30N 39°34' W 028°34'713.0
2018-Aug-03 11:00N 39°37' W 028°26'613.1
2018-Aug-03 10:30N 39°39' W 028°18'713.3
2018-Aug-03 10:00N 39°42' W 028°10'612.8
2018-Aug-03 09:30N 39°44' W 028°03'612.4
2018-Aug-03 09:00N 39°46' W 027°55'1613.0
2018-Aug-03 07:45N 39°52' W 027°35'612.4
2018-Aug-03 07:18N 39°55' W 027°29'1613.1
2018-Aug-03 06:05N 40°00' W 027°09'  
2018-Jul-30 06:55N 49°49' W 003°48'6 9.1
2018-Jul-30 06:15N 49°50' W 003°39'2 9.5
2018-Jul-30 06:00N 49°51' W 003°35'610.1
2018-Jul-30 05:26N 49°53' W 003°27'510.7
2018-Jul-30 05:00N 49°54' W 003°20'611.1
2018-Jul-30 04:30N 49°57' W 003°12'611.8
2018-Jul-30 04:00N 49°58' W 003°03'612.4
2018-Jul-30 03:30N 49°60' W 002°54'612.8
2018-Jul-30 03:00N 50°02' W 002°45'812.8
2018-Jul-30 02:25N 50°04' W 002°33'1512.6
2018-Jul-30 01:13N 50°08' W 002°11'95 9.8
2018-Jul-29 15:27N 50°33' E 000°13'511.6
2018-Jul-29 15:00N 50°35' E 000°21'1111.3
2018-Jul-29 14:00N 50°38' E 000°38'510.6
2018-Jul-29 13:30N 50°42' E 000°45'510.0
2018-Jul-29 13:00N 50°44' E 000°51'5 9.6
2018-Jul-29 12:30N 50°47' E 000°57'5 9.4
2018-Jul-29 12:00N 50°50' E 001°03'5 9.3
2018-Jul-29 11:30N 50°53' E 001°09'5 9.6
2018-Jul-29 11:00N 50°57' E 001°14'510.0
2018-Jul-29 10:28N 51°00' E 001°20'511.3
2018-Jul-29 10:00N 51°04' E 001°26'713.1
2018-Jul-29 09:30N 51°08' E 001°34'714.2
2018-Jul-29 09:00N 51°12' E 001°43'713.8
2018-Jul-29 08:30N 51°18' E 001°49'713.6
2018-Jul-29 08:01N 51°24' E 001°53'612.7
2018-Jul-29 07:31N 51°29' E 001°59'612.5
2018-Jul-29 07:00N 51°34' E 002°06'612.3
2018-Jul-29 06:30N 51°39' E 002°13'712.0
2018-Jul-29 05:57N 51°43' E 002°20'511.5
2018-Jul-29 05:29N 51°47' E 002°26'611.1
2018-Jul-29 04:58N 51°52' E 002°32'3710.2
2018-Jul-29 01:17N 52°20' E 003°12'310.8
2018-Jul-29 01:00N 52°22' E 003°16'911.0
2018-Jul-29 00:12N 52°27' E 003°28'311.5
2018-Jul-28 23:58N 52°28' E 003°32'611.8
2018-Jul-28 23:29N 52°30' E 003°41'612.0
2018-Jul-28 23:01N 52°31' E 003°50'611.8
2018-Jul-28 22:31N 52°31' E 003°60'611.9
2018-Jul-28 22:01N 52°31' E 004°09'611.2
2018-Jul-28 21:30N 52°30' E 004°18'5 9.5
2018-Jul-28 21:01N 52°29' E 004°26'4 7.4
2018-Jul-28 20:31N 52°28' E 004°32'3 5.9
2018-Jul-28 20:01N 52°28' E 004°37'0 0.0
2018-Jul-28 19:31N 52°28' E 004°37'2 3.1
2018-Jul-28 19:00N 52°28' E 004°39'3 6.4
2018-Jul-28 18:30N 52°26' E 004°44'1 2.8
2018-Jul-28 18:00N 52°26' E 004°46'1 2.1
2018-Jul-28 17:31N 52°25' E 004°46'1 1.1
2018-Jul-28 17:00N 52°24' E 004°46'0 0.0
2018-Jul-28 16:27N 52°24' E 004°46'0 0.0
2018-Jul-28 16:00N 52°24' E 004°46'0 0.0
2018-Jul-28 15:30N 52°24' E 004°46'0 0.0
2018-Jul-28 14:57N 52°24' E 004°46'0 0.0
2018-Jul-28 14:27N 52°24' E 004°46'0 0.0
2018-Jul-28 14:00N 52°24' E 004°46'0 0.0
2018-Jul-28 13:30N 52°24' E 004°46'0 0.0
2018-Jul-28 13:00N 52°24' E 004°46'0 0.0
2018-Jul-28 12:30N 52°24' E 004°46'0 0.0
2018-Jul-28 12:00N 52°24' E 004°46'0 0.0
2018-Jul-28 11:30N 52°24' E 004°46'0 0.0
2018-Jul-28 11:00N 52°24' E 004°46'0 0.0
2018-Jul-28 10:30N 52°24' E 004°46'0 0.0
2018-Jul-28 10:00N 52°24' E 004°46'0 0.0
2018-Jul-28 09:30N 52°24' E 004°46'0 0.0
2018-Jul-28 09:00N 52°24' E 004°46'0 0.0
2018-Jul-28 08:30N 52°24' E 004°46'0 0.0
2018-Jul-28 08:00N 52°24' E 004°46'0 0.0
2018-Jul-28 07:30N 52°24' E 004°46'0 0.0
2018-Jul-28 07:00N 52°24' E 004°46'0 0.0
2018-Jul-28 06:27N 52°24' E 004°46'0 0.0
2018-Jul-28 05:57N 52°24' E 004°46'0 0.0
2018-Jul-28 05:30N 52°24' E 004°46'0 0.0
2018-Jul-28 05:00N 52°24' E 004°46'0 0.0
2018-Jul-28 04:30N 52°24' E 004°46'0 0.0
2018-Jul-28 03:57N 52°24' E 004°46'0 0.0
2018-Jul-28 03:30N 52°24' E 004°46'0 0.0
2018-Jul-28 03:00N 52°24' E 004°46'0 0.0
2018-Jul-28 02:30N 52°24' E 004°46'0 0.0
2018-Jul-28 02:00N 52°24' E 004°46'0 0.0
2018-Jul-28 01:21N 52°24' E 004°46'0 0.0
2018-Jul-28 00:57N 52°24' E 004°46'0 0.0
2018-Jul-28 00:30N 52°24' E 004°46'0 0.0
2018-Jul-28 00:00N 52°24' E 004°46'0 0.0
2018-Jul-27 23:30N 52°24' E 004°46'0 0.0
2018-Jul-27 23:00N 52°24' E 004°46'0 0.0
2018-Jul-27 22:30N 52°24' E 004°46'0 0.0
2018-Jul-27 22:00N 52°24' E 004°46'0 0.0
2018-Jul-27 21:30N 52°24' E 004°46'0 0.0
2018-Jul-27 21:00N 52°24' E 004°46'0 0.0
2018-Jul-27 20:30N 52°24' E 004°46'0 0.0
2018-Jul-27 19:57N 52°24' E 004°46'0 0.0
2018-Jul-27 19:27N 52°24' E 004°46'0 0.0
2018-Jul-27 19:00N 52°24' E 004°46'0 0.0
2018-Jul-27 18:30N 52°24' E 004°46'0 0.0
2018-Jul-27 17:51N 52°24' E 004°46'0 0.0
2018-Jul-27 17:27N 52°24' E 004°46'0 0.0
2018-Jul-27 17:00N 52°24' E 004°46'0 0.0
2018-Jul-27 16:27N 52°24' E 004°46'0 0.0
2018-Jul-27 15:45N 52°24' E 004°46'0 0.0
2018-Jul-27 15:27N 52°24' E 004°46'0 0.0
2018-Jul-27 14:39N 52°24' E 004°46'0 0.0
2018-Jul-27 14:21N 52°24' E 004°46'0 0.0
2018-Jul-27 13:57N 52°24' E 004°46'0 0.0
2018-Jul-27 13:30N 52°24' E 004°46'0 0.0
2018-Jul-27 13:00N 52°24' E 004°46'0 0.0
2018-Jul-27 12:24N 52°24' E 004°46'0 0.0
2018-Jul-27 12:00N 52°24' E 004°46'0 0.0
2018-Jul-27 11:30N 52°24' E 004°46'0 0.0
2018-Jul-27 11:00N 52°24' E 004°46'0 0.0
2018-Jul-27 10:27N 52°24' E 004°46'0 0.0
2018-Jul-27 09:48N 52°24' E 004°46'0 0.0
2018-Jul-27 09:27N 52°24' E 004°46'0 0.0
2018-Jul-27 08:51N 52°24' E 004°46'0 0.0
2018-Jul-27 08:30N 52°24' E 004°46'0 0.0
2018-Jul-27 08:00N 52°24' E 004°46'0 0.0
2018-Jul-27 07:21N 52°24' E 004°46'0 0.0
2018-Jul-27 06:54N 52°24' E 004°46'0 0.0
2018-Jul-27 06:30N 52°24' E 004°46'0 0.0
2018-Jul-27 06:00N 52°24' E 004°46'0 0.0
2018-Jul-27 05:27N 52°24' E 004°46'0 0.0
2018-Jul-27 04:42N 52°24' E 004°46'0 0.0
2018-Jul-27 04:21N 52°24' E 004°46'0 0.0
2018-Jul-27 03:57N 52°24' E 004°46'0 0.0
2018-Jul-27 03:30N 52°24' E 004°46'0 0.0
2018-Jul-27 02:57N 52°24' E 004°46'0 0.0
2018-Jul-27 02:30N 52°24' E 004°46'0 0.0
2018-Jul-27 02:00N 52°24' E 004°46'0 0.0
2018-Jul-27 01:30N 52°24' E 004°46'0 0.0
2018-Jul-27 01:00N 52°24' E 004°46'0 0.0
2018-Jul-27 00:30N 52°24' E 004°46'0 0.0
2018-Jul-27 00:00N 52°24' E 004°46'0 0.0
2018-Jul-26 23:21N 52°24' E 004°46'0 0.0
2018-Jul-26 23:00N 52°24' E 004°46'0 0.0
2018-Jul-26 22:30N 52°24' E 004°46'0 0.0
2018-Jul-26 22:00N 52°24' E 004°46'0 0.0
2018-Jul-26 21:30N 52°24' E 004°46'0 0.0
2018-Jul-26 21:00N 52°24' E 004°46'0 0.0
2018-Jul-26 20:30N 52°24' E 004°46'0 0.0
2018-Jul-26 20:00N 52°24' E 004°46'0 0.0
2018-Jul-26 19:30N 52°24' E 004°46'0 0.0
2018-Jul-26 19:00N 52°24' E 004°46'0 0.0
2018-Jul-26 18:27N 52°24' E 004°46'0 0.0
2018-Jul-26 18:00N 52°24' E 004°46'0 0.0
2018-Jul-26 17:30N 52°24' E 004°46'0 0.0
2018-Jul-26 17:00N 52°24' E 004°46'0 0.0
2018-Jul-26 16:30N 52°24' E 004°46'0 0.0
2018-Jul-26 15:57N 52°24' E 004°46'0 0.0
2018-Jul-26 15:30N 52°24' E 004°46'0 0.0
2018-Jul-26 15:00N 52°24' E 004°46'0 0.0
2018-Jul-26 14:30N 52°24' E 004°46'0 0.0
2018-Jul-26 14:00N 52°24' E 004°46'0 0.0
2018-Jul-26 13:30N 52°24' E 004°46'0 0.0
2018-Jul-26 13:00N 52°24' E 004°46'0 0.0
2018-Jul-26 12:30N 52°24' E 004°46'0 0.0
2018-Jul-26 12:00N 52°24' E 004°46'0 0.0
2018-Jul-26 11:30N 52°24' E 004°46'0 0.0
2018-Jul-26 11:00N 52°24' E 004°46'0 0.0
2018-Jul-26 10:30N 52°24' E 004°46'0 0.0
2018-Jul-26 10:00N 52°24' E 004°46'0 0.0
2018-Jul-26 09:27N 52°24' E 004°46'0 0.0
2018-Jul-26 09:00N 52°24' E 004°46'0 0.0
2018-Jul-26 08:30N 52°24' E 004°46'0 0.0
2018-Jul-26 08:00N 52°24' E 004°46'0 0.0
2018-Jul-26 07:24N 52°24' E 004°46'0 0.0
2018-Jul-26 07:00N 52°24' E 004°46'0 0.0
2018-Jul-26 06:30N 52°24' E 004°46'0 0.0
2018-Jul-26 06:00N 52°24' E 004°46'0 0.0
2018-Jul-26 05:30N 52°24' E 004°46'0 0.0
2018-Jul-26 04:57N 52°24' E 004°46'0 0.0
2018-Jul-26 04:30N 52°24' E 004°46'0 0.0
2018-Jul-26 04:00N 52°24' E 004°46'0 0.0
2018-Jul-26 03:06N 52°24' E 004°46'0 0.0
2018-Jul-26 02:48N 52°24' E 004°46'0 0.0
2018-Jul-26 02:30N 52°24' E 004°46'0 0.0
2018-Jul-26 01:54N 52°24' E 004°46'0 0.0
2018-Jul-26 01:27N 52°24' E 004°46'0 0.0
2018-Jul-26 01:00N 52°24' E 004°46'0 0.0
2018-Jul-26 00:18N 52°24' E 004°46'0 0.0
2018-Jul-26 00:00N 52°24' E 004°46'0 0.0
2018-Jul-25 23:27N 52°24' E 004°46'0 0.0
2018-Jul-25 23:00N 52°24' E 004°46'0 0.0
2018-Jul-25 22:24N 52°24' E 004°46'0 0.0
2018-Jul-25 21:54N 52°24' E 004°46'0 0.0
2018-Jul-25 21:21N 52°24' E 004°46'0 0.0
2018-Jul-25 21:00N 52°24' E 004°46'0 0.0
2018-Jul-25 20:30N 52°24' E 004°46'0 0.0
2018-Jul-25 20:00N 52°24' E 004°46'0 0.0
2018-Jul-25 19:30N 52°24' E 004°46'0 0.0
2018-Jul-25 19:00N 52°24' E 004°46'0 0.0
2018-Jul-25 18:30N 52°24' E 004°46'0 0.0
2018-Jul-25 18:00N 52°24' E 004°46'0 0.0
2018-Jul-25 17:27N 52°24' E 004°46'0 0.0
2018-Jul-25 17:00N 52°24' E 004°46'0 0.0
2018-Jul-25 16:30N 52°24' E 004°46'0 0.0
2018-Jul-25 16:00N 52°24' E 004°46'0 0.0
2018-Jul-25 15:30N 52°24' E 004°46'0 0.0
2018-Jul-25 15:00N 52°24' E 004°46'0 0.0
2018-Jul-25 14:27N 52°24' E 004°46'0 0.0
2018-Jul-25 14:00N 52°24' E 004°46'0 0.0
2018-Jul-25 13:30N 52°24' E 004°46'0 0.0
2018-Jul-25 12:54N 52°24' E 004°46'0 0.0
2018-Jul-25 12:24N 52°24' E 004°46'0 0.0
2018-Jul-25 12:00N 52°24' E 004°46'0 0.0
2018-Jul-25 11:21N 52°24' E 004°46'0 0.0
2018-Jul-25 10:57N 52°24' E 004°46'0 0.0
2018-Jul-25 10:30N 52°24' E 004°46'0 0.0
2018-Jul-25 10:00N 52°24' E 004°46'0 0.0
2018-Jul-25 09:30N 52°24' E 004°46'0 0.0
2018-Jul-25 09:00N 52°24' E 004°46'0 0.0
2018-Jul-25 08:30N 52°24' E 004°46'0 0.0
2018-Jul-25 08:00N 52°24' E 004°46'0 0.0
2018-Jul-25 07:27N 52°24' E 004°46'0 0.0
2018-Jul-25 07:00N 52°24' E 004°46'0 0.0
2018-Jul-25 06:30N 52°24' E 004°46'0 0.0
2018-Jul-25 05:57N 52°24' E 004°46'0 0.0
2018-Jul-25 05:30N 52°24' E 004°46'0 0.0
2018-Jul-25 04:48N 52°24' E 004°46'0 0.0
2018-Jul-25 04:30N 52°24' E 004°46'0 0.0
2018-Jul-25 04:00N 52°24' E 004°46'0 0.0
2018-Jul-25 03:30N 52°24' E 004°46'0 0.0
2018-Jul-25 03:00N 52°24' E 004°46'0 0.0
2018-Jul-25 02:24N 52°24' E 004°46'0 0.0
2018-Jul-25 02:00N 52°24' E 004°46'0 0.0
2018-Jul-25 01:30N 52°24' E 004°46'0 0.0
2018-Jul-25 00:54N 52°24' E 004°46'0 0.0
2018-Jul-25 00:30N 52°24' E 004°46'0 0.0
2018-Jul-25 00:00N 52°24' E 004°46'0 0.0
2018-Jul-24 23:27N 52°24' E 004°46'0 0.0
2018-Jul-24 23:00N 52°24' E 004°46'0 0.0
2018-Jul-24 22:21N 52°24' E 004°46'0 0.0
2018-Jul-24 22:00N 52°24' E 004°46'0 0.0
2018-Jul-24 21:30N 52°24' E 004°46'0 0.0
2018-Jul-24 20:57N 52°24' E 004°46'0 0.0
2018-Jul-24 20:30N 52°24' E 004°46'  
Track history (hours):
 
Tides and Currents Weather Stations Pressure Air Temp Water Temp Dewpoint Dewpoint Depression Visibility Wind Speed Wind Dir Waves Ship Positions

Bw Myna

Last reported at 2018-Aug-03 20:07 UTC. Time now 2018-Aug-15 02:59 UTC.
Position N 38°51' W 030°49'.
Warning: this ship's position is 11 days out of date.

Length 183 m; draft 11.3 m.

Type: Tanker. MMSI: 564225000.

Date/timePositionNaut miles runAvg speedWind from/ knotsBaromVisibWave heightAir tempDewpointWater temp
2018-Aug-03 20:07N 38°51' W 030°49'813.0
2018-Aug-03 19:28N 38°54' W 030°39'913.0
2018-Aug-03 18:45N 38°57' W 030°28'313.1
2018-Aug-03 18:30N 38°59' W 030°24'713.3
2018-Aug-03 18:00N 39°01' W 030°16'612.9
2018-Aug-03 17:30N 39°04' W 030°09'612.9
2018-Aug-03 17:00N 39°07' W 030°01'713.0
2018-Aug-03 16:30N 39°09' W 029°54'612.8
2018-Aug-03 16:00N 39°12' W 029°46'613.0
2018-Aug-03 15:30N 39°14' W 029°38'713.1
2018-Aug-03 15:00N 39°17' W 029°30'713.5
2018-Aug-03 14:30N 39°19' W 029°22'713.5
2018-Aug-03 14:00N 39°22' W 029°14'713.5
2018-Aug-03 13:30N 39°24' W 029°06'713.2
2018-Aug-03 13:00N 39°27' W 028°58'713.5
2018-Aug-03 12:30N 39°29' W 028°50'713.4
2018-Aug-03 12:00N 39°32' W 028°42'713.4
2018-Aug-03 11:30N 39°34' W 028°34'713.0
2018-Aug-03 11:00N 39°37' W 028°26'613.1
2018-Aug-03 10:30N 39°39' W 028°18'713.3
2018-Aug-03 10:00N 39°42' W 028°10'612.8
2018-Aug-03 09:30N 39°44' W 028°03'612.4
2018-Aug-03 09:00N 39°46' W 027°55'1613.0
2018-Aug-03 07:45N 39°52' W 027°35'612.4
2018-Aug-03 07:18N 39°55' W 027°29'1613.1
2018-Aug-03 06:05N 40°00' W 027°09'  
2018-Jul-30 06:55N 49°49' W 003°48'6 9.1
2018-Jul-30 06:15N 49°50' W 003°39'2 9.5
2018-Jul-30 06:00N 49°51' W 003°35'610.1
2018-Jul-30 05:26N 49°53' W 003°27'510.7
2018-Jul-30 05:00N 49°54' W 003°20'611.1
2018-Jul-30 04:30N 49°57' W 003°12'611.8
2018-Jul-30 04:00N 49°58' W 003°03'612.4
2018-Jul-30 03:30N 49°60' W 002°54'612.8
2018-Jul-30 03:00N 50°02' W 002°45'812.8
2018-Jul-30 02:25N 50°04' W 002°33'1512.6
2018-Jul-30 01:13N 50°08' W 002°11'95 9.8
2018-Jul-29 15:27N 50°33' E 000°13'511.6
2018-Jul-29 15:00N 50°35' E 000°21'1111.3
2018-Jul-29 14:00N 50°38' E 000°38'510.6
2018-Jul-29 13:30N 50°42' E 000°45'510.0
2018-Jul-29 13:00N 50°44' E 000°51'5 9.6
2018-Jul-29 12:30N 50°47' E 000°57'5 9.4
2018-Jul-29 12:00N 50°50' E 001°03'5 9.3
2018-Jul-29 11:30N 50°53' E 001°09'5 9.6
2018-Jul-29 11:00N 50°57' E 001°14'510.0
2018-Jul-29 10:28N 51°00' E 001°20'511.3
2018-Jul-29 10:00N 51°04' E 001°26'713.1
2018-Jul-29 09:30N 51°08' E 001°34'714.2
2018-Jul-29 09:00N 51°12' E 001°43'713.8
2018-Jul-29 08:30N 51°18' E 001°49'713.6
2018-Jul-29 08:01N 51°24' E 001°53'612.7
2018-Jul-29 07:31N 51°29' E 001°59'612.5
2018-Jul-29 07:00N 51°34' E 002°06'612.3
2018-Jul-29 06:30N 51°39' E 002°13'712.0
2018-Jul-29 05:57N 51°43' E 002°20'511.5
2018-Jul-29 05:29N 51°47' E 002°26'611.1
2018-Jul-29 04:58N 51°52' E 002°32'3710.2
2018-Jul-29 01:17N 52°20' E 003°12'310.8
2018-Jul-29 01:00N 52°22' E 003°16'911.0
2018-Jul-29 00:12N 52°27' E 003°28'311.5
2018-Jul-28 23:58N 52°28' E 003°32'611.8
2018-Jul-28 23:29N 52°30' E 003°41'612.0
2018-Jul-28 23:01N 52°31' E 003°50'611.8
2018-Jul-28 22:31N 52°31' E 003°60'611.9
2018-Jul-28 22:01N 52°31' E 004°09'611.2
2018-Jul-28 21:30N 52°30' E 004°18'5 9.5
2018-Jul-28 21:01N 52°29' E 004°26'4 7.4
2018-Jul-28 20:31N 52°28' E 004°32'3 5.9
2018-Jul-28 20:01N 52°28' E 004°37'0 0.0
2018-Jul-28 19:31N 52°28' E 004°37'2 3.1
2018-Jul-28 19:00N 52°28' E 004°39'3 6.4
2018-Jul-28 18:30N 52°26' E 004°44'1 2.8
2018-Jul-28 18:00N 52°26' E 004°46'1 2.1
2018-Jul-28 17:31N 52°25' E 004°46'1 1.1
2018-Jul-28 17:00N 52°24' E 004°46'0 0.0
2018-Jul-28 16:27N 52°24' E 004°46'0 0.0
2018-Jul-28 16:00N 52°24' E 004°46'0 0.0
2018-Jul-28 15:30N 52°24' E 004°46'0 0.0
2018-Jul-28 14:57N 52°24' E 004°46'0 0.0
2018-Jul-28 14:27N 52°24' E 004°46'0 0.0
2018-Jul-28 14:00N 52°24' E 004°46'0 0.0
2018-Jul-28 13:30N 52°24' E 004°46'0 0.0
2018-Jul-28 13:00N 52°24' E 004°46'0 0.0
2018-Jul-28 12:30N 52°24' E 004°46'0 0.0
2018-Jul-28 12:00N 52°24' E 004°46'0 0.0
2018-Jul-28 11:30N 52°24' E 004°46'0 0.0
2018-Jul-28 11:00N 52°24' E 004°46'0 0.0
2018-Jul-28 10:30N 52°24' E 004°46'0 0.0
2018-Jul-28 10:00N 52°24' E 004°46'0 0.0
2018-Jul-28 09:30N 52°24' E 004°46'0 0.0
2018-Jul-28 09:00N 52°24' E 004°46'0 0.0
2018-Jul-28 08:30N 52°24' E 004°46'0 0.0
2018-Jul-28 08:00N 52°24' E 004°46'0 0.0
2018-Jul-28 07:30N 52°24' E 004°46'0 0.0
2018-Jul-28 07:00N 52°24' E 004°46'0 0.0
2018-Jul-28 06:27N 52°24' E 004°46'0 0.0
2018-Jul-28 05:57N 52°24' E 004°46'0 0.0
2018-Jul-28 05:30N 52°24' E 004°46'0 0.0
2018-Jul-28 05:00N 52°24' E 004°46'0 0.0
2018-Jul-28 04:30N 52°24' E 004°46'0 0.0
2018-Jul-28 03:57N 52°24' E 004°46'0 0.0
2018-Jul-28 03:30N 52°24' E 004°46'0 0.0
2018-Jul-28 03:00N 52°24' E 004°46'0 0.0
2018-Jul-28 02:30N 52°24' E 004°46'0 0.0
2018-Jul-28 02:00N 52°24' E 004°46'0 0.0
2018-Jul-28 01:21N 52°24' E 004°46'0 0.0
2018-Jul-28 00:57N 52°24' E 004°46'0 0.0
2018-Jul-28 00:30N 52°24' E 004°46'0 0.0
2018-Jul-28 00:00N 52°24' E 004°46'0 0.0
2018-Jul-27 23:30N 52°24' E 004°46'0 0.0
2018-Jul-27 23:00N 52°24' E 004°46'0 0.0
2018-Jul-27 22:30N 52°24' E 004°46'0 0.0
2018-Jul-27 22:00N 52°24' E 004°46'0 0.0
2018-Jul-27 21:30N 52°24' E 004°46'0 0.0
2018-Jul-27 21:00N 52°24' E 004°46'0 0.0
2018-Jul-27 20:30N 52°24' E 004°46'0 0.0
2018-Jul-27 19:57N 52°24' E 004°46'0 0.0
2018-Jul-27 19:27N 52°24' E 004°46'0 0.0
2018-Jul-27 19:00N 52°24' E 004°46'0 0.0
2018-Jul-27 18:30N 52°24' E 004°46'0 0.0
2018-Jul-27 17:51N 52°24' E 004°46'0 0.0
2018-Jul-27 17:27N 52°24' E 004°46'0 0.0
2018-Jul-27 17:00N 52°24' E 004°46'0 0.0
2018-Jul-27 16:27N 52°24' E 004°46'0 0.0
2018-Jul-27 15:45N 52°24' E 004°46'0 0.0
2018-Jul-27 15:27N 52°24' E 004°46'0 0.0
2018-Jul-27 14:39N 52°24' E 004°46'0 0.0
2018-Jul-27 14:21N 52°24' E 004°46'0 0.0
2018-Jul-27 13:57N 52°24' E 004°46'0 0.0
2018-Jul-27 13:30N 52°24' E 004°46'0 0.0
2018-Jul-27 13:00N 52°24' E 004°46'0 0.0
2018-Jul-27 12:24N 52°24' E 004°46'0 0.0
2018-Jul-27 12:00N 52°24' E 004°46'0 0.0
2018-Jul-27 11:30N 52°24' E 004°46'0 0.0
2018-Jul-27 11:00N 52°24' E 004°46'0 0.0
2018-Jul-27 10:27N 52°24' E 004°46'0 0.0
2018-Jul-27 09:48N 52°24' E 004°46'0 0.0
2018-Jul-27 09:27N 52°24' E 004°46'0 0.0
2018-Jul-27 08:51N 52°24' E 004°46'0 0.0
2018-Jul-27 08:30N 52°24' E 004°46'0 0.0
2018-Jul-27 08:00N 52°24' E 004°46'0 0.0
2018-Jul-27 07:21N 52°24' E 004°46'0 0.0
2018-Jul-27 06:54N 52°24' E 004°46'0 0.0
2018-Jul-27 06:30N 52°24' E 004°46'0 0.0
2018-Jul-27 06:00N 52°24' E 004°46'0 0.0
2018-Jul-27 05:27N 52°24' E 004°46'0 0.0
2018-Jul-27 04:42N 52°24' E 004°46'0 0.0
2018-Jul-27 04:21N 52°24' E 004°46'0 0.0
2018-Jul-27 03:57N 52°24' E 004°46'0 0.0
2018-Jul-27 03:30N 52°24' E 004°46'0 0.0
2018-Jul-27 02:57N 52°24' E 004°46'0 0.0
2018-Jul-27 02:30N 52°24' E 004°46'0 0.0
2018-Jul-27 02:00N 52°24' E 004°46'0 0.0
2018-Jul-27 01:30N 52°24' E 004°46'0 0.0
2018-Jul-27 01:00N 52°24' E 004°46'0 0.0
2018-Jul-27 00:30N 52°24' E 004°46'0 0.0
2018-Jul-27 00:00N 52°24' E 004°46'0 0.0
2018-Jul-26 23:21N 52°24' E 004°46'0 0.0
2018-Jul-26 23:00N 52°24' E 004°46'0 0.0
2018-Jul-26 22:30N 52°24' E 004°46'0 0.0
2018-Jul-26 22:00N 52°24' E 004°46'0 0.0
2018-Jul-26 21:30N 52°24' E 004°46'0 0.0
2018-Jul-26 21:00N 52°24' E 004°46'0 0.0
2018-Jul-26 20:30N 52°24' E 004°46'0 0.0
2018-Jul-26 20:00N 52°24' E 004°46'0 0.0
2018-Jul-26 19:30N 52°24' E 004°46'0 0.0
2018-Jul-26 19:00N 52°24' E 004°46'0 0.0
2018-Jul-26 18:27N 52°24' E 004°46'0 0.0
2018-Jul-26 18:00N 52°24' E 004°46'0 0.0
2018-Jul-26 17:30N 52°24' E 004°46'0 0.0
2018-Jul-26 17:00N 52°24' E 004°46'0 0.0
2018-Jul-26 16:30N 52°24' E 004°46'0 0.0
2018-Jul-26 15:57N 52°24' E 004°46'0 0.0
2018-Jul-26 15:30N 52°24' E 004°46'0 0.0
2018-Jul-26 15:00N 52°24' E 004°46'0 0.0
2018-Jul-26 14:30N 52°24' E 004°46'0 0.0
2018-Jul-26 14:00N 52°24' E 004°46'0 0.0
2018-Jul-26 13:30N 52°24' E 004°46'0 0.0
2018-Jul-26 13:00N 52°24' E 004°46'0 0.0
2018-Jul-26 12:30N 52°24' E 004°46'0 0.0
2018-Jul-26 12:00N 52°24' E 004°46'0 0.0
2018-Jul-26 11:30N 52°24' E 004°46'0 0.0
2018-Jul-26 11:00N 52°24' E 004°46'0 0.0
2018-Jul-26 10:30N 52°24' E 004°46'0 0.0
2018-Jul-26 10:00N 52°24' E 004°46'0 0.0
2018-Jul-26 09:27N 52°24' E 004°46'0 0.0
2018-Jul-26 09:00N 52°24' E 004°46'0 0.0
2018-Jul-26 08:30N 52°24' E 004°46'0 0.0
2018-Jul-26 08:00N 52°24' E 004°46'0 0.0
2018-Jul-26 07:24N 52°24' E 004°46'0 0.0
2018-Jul-26 07:00N 52°24' E 004°46'0 0.0
2018-Jul-26 06:30N 52°24' E 004°46'0 0.0
2018-Jul-26 06:00N 52°24' E 004°46'0 0.0
2018-Jul-26 05:30N 52°24' E 004°46'0 0.0
2018-Jul-26 04:57N 52°24' E 004°46'0 0.0
2018-Jul-26 04:30N 52°24' E 004°46'0 0.0
2018-Jul-26 04:00N 52°24' E 004°46'0 0.0
2018-Jul-26 03:06N 52°24' E 004°46'0 0.0
2018-Jul-26 02:48N 52°24' E 004°46'0 0.0
2018-Jul-26 02:30N 52°24' E 004°46'0 0.0
2018-Jul-26 01:54N 52°24' E 004°46'0 0.0
2018-Jul-26 01:27N 52°24' E 004°46'0 0.0
2018-Jul-26 01:00N 52°24' E 004°46'0 0.0
2018-Jul-26 00:18N 52°24' E 004°46'0 0.0
2018-Jul-26 00:00N 52°24' E 004°46'0 0.0
2018-Jul-25 23:27N 52°24' E 004°46'0 0.0
2018-Jul-25 23:00N 52°24' E 004°46'0 0.0
2018-Jul-25 22:24N 52°24' E 004°46'0 0.0
2018-Jul-25 21:54N 52°24' E 004°46'0 0.0
2018-Jul-25 21:21N 52°24' E 004°46'0 0.0
2018-Jul-25 21:00N 52°24' E 004°46'0 0.0
2018-Jul-25 20:30N 52°24' E 004°46'0 0.0
2018-Jul-25 20:00N 52°24' E 004°46'0 0.0
2018-Jul-25 19:30N 52°24' E 004°46'0 0.0
2018-Jul-25 19:00N 52°24' E 004°46'0 0.0
2018-Jul-25 18:30N 52°24' E 004°46'0 0.0
2018-Jul-25 18:00N 52°24' E 004°46'0 0.0
2018-Jul-25 17:27N 52°24' E 004°46'0 0.0
2018-Jul-25 17:00N 52°24' E 004°46'0 0.0
2018-Jul-25 16:30N 52°24' E 004°46'0 0.0
2018-Jul-25 16:00N 52°24' E 004°46'0 0.0
2018-Jul-25 15:30N 52°24' E 004°46'0 0.0
2018-Jul-25 15:00N 52°24' E 004°46'0 0.0
2018-Jul-25 14:27N 52°24' E 004°46'0 0.0
2018-Jul-25 14:00N 52°24' E 004°46'0 0.0
2018-Jul-25 13:30N 52°24' E 004°46'0 0.0
2018-Jul-25 12:54N 52°24' E 004°46'0 0.0
2018-Jul-25 12:24N 52°24' E 004°46'0 0.0
2018-Jul-25 12:00N 52°24' E 004°46'0 0.0
2018-Jul-25 11:21N 52°24' E 004°46'0 0.0
2018-Jul-25 10:57N 52°24' E 004°46'0 0.0
2018-Jul-25 10:30N 52°24' E 004°46'0 0.0
2018-Jul-25 10:00N 52°24' E 004°46'0 0.0
2018-Jul-25 09:30N 52°24' E 004°46'0 0.0
2018-Jul-25 09:00N 52°24' E 004°46'0 0.0
2018-Jul-25 08:30N 52°24' E 004°46'0 0.0
2018-Jul-25 08:00N 52°24' E 004°46'0 0.0
2018-Jul-25 07:27N 52°24' E 004°46'0 0.0
2018-Jul-25 07:00N 52°24' E 004°46'0 0.0
2018-Jul-25 06:30N 52°24' E 004°46'0 0.0
2018-Jul-25 05:57N 52°24' E 004°46'0 0.0
2018-Jul-25 05:30N 52°24' E 004°46'0 0.0
2018-Jul-25 04:48N 52°24' E 004°46'0 0.0
2018-Jul-25 04:30N 52°24' E 004°46'0 0.0
2018-Jul-25 04:00N 52°24' E 004°46'0 0.0
2018-Jul-25 03:30N 52°24' E 004°46'0 0.0
2018-Jul-25 03:00N 52°24' E 004°46'0 0.0
2018-Jul-25 02:24N 52°24' E 004°46'0 0.0
2018-Jul-25 02:00N 52°24' E 004°46'0 0.0
2018-Jul-25 01:30N 52°24' E 004°46'0 0.0
2018-Jul-25 00:54N 52°24' E 004°46'0 0.0
2018-Jul-25 00:30N 52°24' E 004°46'0 0.0
2018-Jul-25 00:00N 52°24' E 004°46'0 0.0
2018-Jul-24 23:27N 52°24' E 004°46'0 0.0
2018-Jul-24 23:00N 52°24' E 004°46'0 0.0
2018-Jul-24 22:21N 52°24' E 004°46'0 0.0
2018-Jul-24 22:00N 52°24' E 004°46'0 0.0
2018-Jul-24 21:30N 52°24' E 004°46'0 0.0
2018-Jul-24 20:57N 52°24' E 004°46'0 0.0
2018-Jul-24 20:30N 52°24' E 004°46'  

Dump ship's entire track history